Aviation Digital Data Service (ADDS)

Output produced by METARs form (1815 UTC 26 October 2021)
found at http://aviationweather.gov/metar/data/
 
METAR text: KLOT 261755Z AUTO 00000KT 10SM OVC040 12/07 A3009 RMK AO2 T01200066 10125 20050
Conditions at: KLOT (ROMEOVILLE/CHI , IL, US) observed 1755 UTC 26 October 2021
Temperature: 12.0°C (54°F)
Dewpoint: 6.6°C (44°F) [RH = 69%]
Pressure (altimeter): 30.09 inches Hg (1019.0 mb)
Winds: calm
Visibility: 10 or more miles (16+ km)
Ceiling: 4000 feet AGL
Clouds: overcast cloud deck at 4000 feet AGL
Weather: automated observation with no human augmentation;
there may or may not be significant weather present at this time

METAR text: KLOT 261735Z AUTO 00000KT 10SM OVC042 12/07 A3010 RMK AO2 T01180068
Conditions at: KLOT (ROMEOVILLE/CHI , IL, US) observed 1735 UTC 26 October 2021
Temperature: 11.8°C (53°F)
Dewpoint: 6.8°C (44°F) [RH = 71%]
Pressure (altimeter): 30.10 inches Hg (1019.4 mb)
Winds: calm
Visibility: 10 or more miles (16+ km)
Ceiling: 4200 feet AGL
Clouds: overcast cloud deck at 4200 feet AGL
Weather: automated observation with no human augmentation;
there may or may not be significant weather present at this time

METAR text: KLOT 261715Z AUTO 00000KT 10SM SCT027 SCT036 OVC042 11/07 A3011 RMK AO2 T01130067
Conditions at: KLOT (ROMEOVILLE/CHI , IL, US) observed 1715 UTC 26 October 2021
Temperature: 11.3°C (52°F)
Dewpoint: 6.7°C (44°F) [RH = 73%]
Pressure (altimeter): 30.11 inches Hg (1019.7 mb)
Winds: calm
Visibility: 10 or more miles (16+ km)
Ceiling: 4200 feet AGL
Clouds: scattered clouds at 2700 feet AGL
scattered clouds at 3600 feet AGL
overcast cloud deck at 4200 feet AGL
Weather: automated observation with no human augmentation;
there may or may not be significant weather present at this time

METAR text: KLOT 261655Z AUTO 00000KT 10SM BKN029 OVC038 11/07 A3012 RMK AO2 T01110066
Conditions at: KLOT (ROMEOVILLE/CHI , IL, US) observed 1655 UTC 26 October 2021
Temperature: 11.1°C (52°F)
Dewpoint: 6.6°C (44°F) [RH = 74%]
Pressure (altimeter): 30.12 inches Hg (1020.1 mb)
Winds: calm
Visibility: 10 or more miles (16+ km)
Ceiling: 2900 feet AGL
Clouds: broken clouds at 2900 feet AGL
overcast cloud deck at 3800 feet AGL
Weather: automated observation with no human augmentation;
there may or may not be significant weather present at this time

METAR text: KLOT 261635Z AUTO 02003KT 10SM BKN029 BKN036 11/07 A3012 RMK AO2 T01110069
Conditions at: KLOT (ROMEOVILLE/CHI , IL, US) observed 1635 UTC 26 October 2021
Temperature: 11.1°C (52°F)
Dewpoint: 6.9°C (44°F) [RH = 75%]
Pressure (altimeter): 30.12 inches Hg (1020.1 mb)
Winds: from the NNE (20 degrees) at 3 MPH (3 knots; 1.5 m/s)
Visibility: 10 or more miles (16+ km)
Ceiling: 2900 feet AGL
Clouds: broken clouds at 2900 feet AGL
broken clouds at 3600 feet AGL
Weather: automated observation with no human augmentation;
there may or may not be significant weather present at this time